Time;durP1;ratioP1;P1;durP2;ratioP2;P2;SDS_P1;SDS_P2;PMS_P1;PMS_P2;Temp;Humidity;BMP_temperature;BMP_pressure;BME280_temperature;BME280_humidity;BME280_pressure;Samples;Min_cycle;Max_cycle;Signal;HPM_P1;HPM_P2
2023/06/08 00:01:32;;;;;;;14.02;6.45;;;;;;;;;;5018907;28;20038;-70
2023/06/08 00:03:57;;;;;;;10.05;6.63;;;;;;;;;;5024691;28;20076;-70
2023/06/08 00:06:23;;;;;;;16.83;7.03;;;;;;;;;;5024991;28;20534;-70
2023/06/08 00:08:49;;;;;;;11.18;6.65;;;;;;;;;;5012061;28;20047;-70
2023/06/08 00:11:14;;;;;;;12.40;6.63;;;;;;;;;;5023725;28;20029;-70
2023/06/08 00:13:40;;;;;;;15.40;7.10;;;;;;;;;;5023250;28;20032;-70
2023/06/08 00:16:05;;;;;;;11.13;6.70;;;;;;;;;;5021910;28;20037;-70
2023/06/08 00:18:30;;;;;;;13.60;6.55;;;;;;;;;;5017805;28;20042;-70
2023/06/08 00:20:56;;;;;;;11.23;6.80;;;;;;;;;;5017310;28;20130;-70
2023/06/08 00:23:22;;;;;;;12.25;6.43;;;;;;;;;;5024703;28;20036;-70
2023/06/08 00:25:48;;;;;;;10.27;6.18;;;;;;;;;;5024652;28;20044;-70
2023/06/08 00:28:13;;;;;;;12.43;6.55;;;;;;;;;;5024772;28;20017;-70
2023/06/08 00:30:38;;;;;;;13.45;6.40;;;;;;;;;;5024391;28;20120;-70
2023/06/08 00:33:04;;;;;;;12.73;6.47;;;;;;;;;;5024673;28;20041;-70
2023/06/08 00:35:30;;;;;;;11.73;6.07;;;;;;;;;;5023966;28;20073;-70
2023/06/08 00:37:55;;;;;;;15.88;7.43;;;;;;;;;;5023208;28;21154;-70
2023/06/08 00:40:21;;;;;;;13.82;6.65;;;;;;;;;;5024677;28;20104;-70
2023/06/08 00:42:46;;;;;;;15.35;6.80;;;;;;;;;;5022817;28;20180;-70
2023/06/08 00:45:11;;;;;;;10.95;6.70;;;;;;;;;;5023630;28;20111;-70
2023/06/08 00:47:37;;;;;;;14.65;6.88;;;;;;;;;;5024559;28;20040;-70
2023/06/08 00:50:04;;;;;;;14.48;6.35;;;;;;;;;;5024139;28;20106;-70
2023/06/08 00:52:30;;;;;;;13.25;6.88;;;;;;;;;;5025139;28;20028;-70
2023/06/08 00:54:58;;;;;;;11.30;6.95;;;;;;;;;;5024390;28;20034;-70
2023/06/08 00:57:25;;;;;;;13.77;7.07;;;;;;;;;;5022742;28;20041;-70
2023/06/08 00:59:52;;;;;;;12.82;6.75;;;;;;;;;;5023967;28;20059;-70
2023/06/08 01:02:17;;;;;;;17.10;6.70;;;;;;;;;;5024297;28;20048;-70
2023/06/08 01:04:43;;;;;;;14.93;6.80;;;;;;;;;;5024663;28;20527;-70
2023/06/08 01:07:27;;;;;;;16.33;6.60;;;;;;;;;;5025811;28;20027;-70
2023/06/08 01:09:58;;;;;;;15.77;6.70;;;;;;;;;;5029432;28;20029;-70
2023/06/08 01:12:38;;;;;;;11.55;6.85;;;;;;;;;;5023258;28;20029;-70
2023/06/08 01:15:18;;;;;;;16.60;7.25;;;;;;;;;;5027611;28;20059;-70
2023/06/08 01:17:52;;;;;;;12.75;6.53;;;;;;;;;;5024307;28;20060;-70
2023/06/08 01:21:06;;;;;;;14.98;7.22;;;;;;;;;;5023125;28;20041;-70
2023/06/08 01:24:16;;;;;;;13.32;6.88;;;;;;;;;;5023570;28;20038;-70
2023/06/08 01:26:44;;;;;;;13.52;7.43;;;;;;;;;;5012584;28;20037;-70
2023/06/08 01:29:13;;;;;;;10.63;6.13;;;;;;;;;;5024088;28;20434;-70
2023/06/08 01:31:38;;;;;;;13.93;7.03;;;;;;;;;;5021961;28;20037;-70
2023/06/08 01:34:05;;;;;;;12.60;6.70;;;;;;;;;;5022797;28;20076;-70
2023/06/08 01:36:49;;;;;;;14.45;7.28;;;;;;;;;;5019845;28;20026;-70
2023/06/08 01:39:23;;;;;;;13.35;6.97;;;;;;;;;;5023419;28;20815;-70
2023/06/08 01:41:51;;;;;;;15.00;6.45;;;;;;;;;;5021633;28;20423;-70
2023/06/08 01:44:18;;;;;;;14.90;7.10;;;;;;;;;;5022464;28;20030;-70
2023/06/08 01:46:50;;;;;;;14.73;6.82;;;;;;;;;;5023642;28;20025;-70
2023/06/08 01:49:17;;;;;;;18.08;7.50;;;;;;;;;;5022224;28;20032;-70
2023/06/08 01:51:43;;;;;;;15.15;6.95;;;;;;;;;;5023436;28;20136;-70
2023/06/08 01:54:08;;;;;;;15.32;7.00;;;;;;;;;;5023408;28;20124;-70
2023/06/08 01:56:35;;;;;;;14.02;6.95;;;;;;;;;;5025142;28;20411;-70
2023/06/08 01:59:01;;;;;;;13.65;7.15;;;;;;;;;;5027534;28;20500;-70
2023/06/08 02:01:26;;;;;;;10.75;6.53;;;;;;;;;;5022666;28;20112;-70
2023/06/08 02:03:52;;;;;;;16.08;7.55;;;;;;;;;;5023465;28;20388;-70
2023/06/08 02:06:17;;;;;;;13.77;7.07;;;;;;;;;;5025002;28;20037;-70
2023/06/08 02:08:43;;;;;;;12.57;7.15;;;;;;;;;;5026318;28;20033;-70
2023/06/08 02:11:10;;;;;;;13.48;7.65;;;;;;;;;;5018773;28;20037;-70
2023/06/08 02:13:41;;;;;;;14.85;6.50;;;;;;;;;;5027503;28;20029;-70
2023/06/08 02:16:07;;;;;;;15.85;7.20;;;;;;;;;;5025766;28;20045;-70
2023/06/08 02:18:35;;;;;;;17.65;7.45;;;;;;;;;;5027187;28;20045;-70
2023/06/08 02:21:02;;;;;;;12.98;7.00;;;;;;;;;;5027102;28;20068;-70
2023/06/08 02:23:28;;;;;;;13.80;7.10;;;;;;;;;;5027131;28;20037;-70
2023/06/08 02:25:53;;;;;;;14.82;6.95;;;;;;;;;;5026670;28;20972;-70
2023/06/08 02:28:18;;;;;;;15.27;7.30;;;;;;;;;;5028053;28;20559;-70
2023/06/08 02:30:44;;;;;;;15.85;6.97;;;;;;;;;;5027303;28;20518;-70
2023/06/08 02:33:09;;;;;;;12.45;7.22;;;;;;;;;;5028839;28;20099;-70
2023/06/08 02:35:36;;;;;;;15.10;6.82;;;;;;;;;;5035162;28;20197;-70
2023/06/08 02:38:01;;;;;;;15.80;6.65;;;;;;;;;;5040056;28;20109;-70
2023/06/08 02:40:27;;;;;;;17.20;7.30;;;;;;;;;;5031200;28;20060;-70
2023/06/08 02:42:52;;;;;;;20.33;6.90;;;;;;;;;;5026758;28;20529;-70
2023/06/08 02:45:17;;;;;;;16.35;7.57;;;;;;;;;;5024807;28;20048;-70
2023/06/08 02:47:43;;;;;;;17.17;7.07;;;;;;;;;;5023953;28;20037;-70
2023/06/08 02:50:08;;;;;;;16.98;7.18;;;;;;;;;;5021987;28;20038;-70
2023/06/08 02:52:34;;;;;;;18.75;7.25;;;;;;;;;;5027520;28;20076;-70
2023/06/08 02:54:59;;;;;;;15.90;7.45;;;;;;;;;;5026097;28;20072;-70
2023/06/08 02:57:24;;;;;;;17.02;7.05;;;;;;;;;;5026232;28;20044;-70
2023/06/08 02:59:50;;;;;;;19.60;7.30;;;;;;;;;;5024769;28;20038;-70
2023/06/08 03:02:16;;;;;;;14.32;6.82;;;;;;;;;;5026243;28;20034;-70
2023/06/08 03:04:45;;;;;;;16.80;7.18;;;;;;;;;;5025802;28;20948;-70
2023/06/08 03:07:15;;;;;;;15.68;7.10;;;;;;;;;;5026255;28;20029;-70
2023/06/08 03:09:42;;;;;;;16.73;7.25;;;;;;;;;;5013931;28;20062;-70
2023/06/08 03:12:09;;;;;;;14.70;6.78;;;;;;;;;;5018117;28;20076;-70
2023/06/08 03:14:35;;;;;;;16.55;7.40;;;;;;;;;;5026018;28;20029;-70
2023/06/08 03:17:03;;;;;;;24.33;8.30;;;;;;;;;;5025935;28;20087;-70
2023/06/08 03:19:31;;;;;;;16.02;6.80;;;;;;;;;;5013016;28;20272;-70
2023/06/08 03:22:00;;;;;;;15.07;7.10;;;;;;;;;;5024755;28;20444;-70
2023/06/08 03:24:28;;;;;;;17.27;7.50;;;;;;;;;;5025719;28;20038;-70
2023/06/08 03:26:55;;;;;;;20.05;7.57;;;;;;;;;;5025472;28;20049;-70
2023/06/08 03:29:21;;;;;;;16.00;7.25;;;;;;;;;;5024997;28;20033;-70
2023/06/08 03:31:46;;;;;;;12.60;6.60;;;;;;;;;;5011278;28;20029;-70
2023/06/08 03:34:12;;;;;;;18.63;7.15;;;;;;;;;;5024246;28;20044;-70
2023/06/08 03:36:38;;;;;;;17.35;7.20;;;;;;;;;;5025827;28;20076;-70
2023/06/08 03:39:04;;;;;;;12.90;6.75;;;;;;;;;;5025614;28;20179;-70
2023/06/08 03:41:30;;;;;;;14.88;6.95;;;;;;;;;;5025896;28;20559;-70
2023/06/08 03:43:56;;;;;;;16.80;7.57;;;;;;;;;;5025350;28;20025;-70
2023/06/08 03:46:21;;;;;;;19.13;7.10;;;;;;;;;;5026187;28;20037;-70
2023/06/08 03:48:47;;;;;;;15.27;7.25;;;;;;;;;;5026141;28;20040;-70
2023/06/08 03:51:13;;;;;;;17.70;7.50;;;;;;;;;;5025375;28;20042;-70
2023/06/08 03:53:38;;;;;;;14.73;6.57;;;;;;;;;;5025514;28;20037;-70
2023/06/08 03:56:04;;;;;;;19.00;7.25;;;;;;;;;;5025777;28;20064;-70
2023/06/08 03:58:29;;;;;;;18.35;6.88;;;;;;;;;;5027509;28;20171;-70
2023/06/08 04:00:56;;;;;;;18.83;7.18;;;;;;;;;;5031627;28;20056;-70
2023/06/08 04:03:24;;;;;;;15.60;7.28;;;;;;;;;;5040035;28;20054;-70
2023/06/08 04:05:50;;;;;;;16.35;7.15;;;;;;;;;;5035280;28;20045;-70
2023/06/08 04:08:17;;;;;;;17.95;7.43;;;;;;;;;;5025862;28;20033;-70
2023/06/08 04:10:42;;;;;;;15.18;7.18;;;;;;;;;;5024517;28;20097;-69
2023/06/08 04:13:07;;;;;;;16.20;6.97;;;;;;;;;;5013263;28;20112;-70
2023/06/08 04:15:33;;;;;;;14.23;6.95;;;;;;;;;;5023741;28;20041;-69
2023/06/08 04:17:58;;;;;;;22.13;8.07;;;;;;;;;;5023672;28;20045;-69
2023/06/08 04:20:24;;;;;;;14.40;6.70;;;;;;;;;;5023362;28;20060;-70
2023/06/08 04:22:50;;;;;;;18.17;7.30;;;;;;;;;;5025118;28;20146;-69
2023/06/08 04:25:16;;;;;;;16.42;6.75;;;;;;;;;;5023168;28;20112;-70
2023/06/08 04:27:41;;;;;;;15.27;7.03;;;;;;;;;;5025473;28;20076;-69
2023/06/08 04:30:07;;;;;;;18.30;7.32;;;;;;;;;;5024689;28;20083;-69
2023/06/08 04:32:32;;;;;;;16.00;6.93;;;;;;;;;;5024455;28;20095;-69
2023/06/08 04:34:58;;;;;;;19.00;7.05;;;;;;;;;;5024663;28;20482;-69
2023/06/08 04:37:23;;;;;;;16.95;6.90;;;;;;;;;;5023281;28;20060;-70
2023/06/08 04:39:49;;;;;;;17.85;7.88;;;;;;;;;;5024598;28;20049;-69
2023/06/08 04:42:16;;;;;;;16.27;7.13;;;;;;;;;;5023788;28;20040;-70
2023/06/08 04:44:42;;;;;;;22.77;7.15;;;;;;;;;;5024589;28;20030;-69
2023/06/08 04:47:07;;;;;;;16.67;7.68;;;;;;;;;;5024193;28;20063;-69
2023/06/08 04:49:33;;;;;;;15.73;7.40;;;;;;;;;;5023138;28;20029;-69
2023/06/08 04:51:59;;;;;;;14.35;7.38;;;;;;;;;;5021643;28;20067;-69
2023/06/08 04:54:26;;;;;;;23.30;7.03;;;;;;;;;;5023811;28;20037;-69
2023/06/08 04:56:53;;;;;;;22.08;7.40;;;;;;;;;;5023880;28;20060;-69
2023/06/08 04:59:19;;;;;;;19.42;6.93;;;;;;;;;;5023698;28;20053;-69
2023/06/08 05:01:45;;;;;;;15.68;6.80;;;;;;;;;;5023792;28;20033;-69
2023/06/08 05:04:10;;;;;;;16.73;6.95;;;;;;;;;;5024438;28;20057;-69
2023/06/08 05:06:37;;;;;;;17.20;7.22;;;;;;;;;;5023723;28;20065;-69
2023/06/08 05:09:02;;;;;;;18.23;7.72;;;;;;;;;;5023982;28;20029;-69
2023/06/08 05:11:28;;;;;;;18.83;7.28;;;;;;;;;;5017038;28;20505;-69
2023/06/08 05:13:53;;;;;;;17.73;7.10;;;;;;;;;;5024296;28;20033;-69
2023/06/08 05:16:18;;;;;;;16.80;7.07;;;;;;;;;;5024186;28;20076;-69
2023/06/08 05:18:44;;;;;;;19.15;7.85;;;;;;;;;;5021403;28;20124;-69
2023/06/08 05:21:09;;;;;;;16.73;7.43;;;;;;;;;;5002455;28;20042;-69
2023/06/08 05:23:35;;;;;;;17.65;6.95;;;;;;;;;;5009220;28;20073;-69
2023/06/08 05:26:00;;;;;;;22.23;8.07;;;;;;;;;;5014220;28;20619;-69
2023/06/08 05:28:26;;;;;;;19.92;7.43;;;;;;;;;;5029946;28;20079;-70
2023/06/08 05:30:51;;;;;;;14.40;7.35;;;;;;;;;;5034717;28;20101;-70
2023/06/08 05:33:16;;;;;;;20.67;7.78;;;;;;;;;;5030667;28;20084;-69
2023/06/08 05:35:42;;;;;;;17.15;7.30;;;;;;;;;;5029919;28;20511;-69
2023/06/08 05:38:07;;;;;;;22.13;8.25;;;;;;;;;;5023126;28;20052;-70
2023/06/08 05:40:34;;;;;;;17.17;7.07;;;;;;;;;;5022972;28;20029;-69
2023/06/08 05:42:59;;;;;;;18.73;8.00;;;;;;;;;;5013621;28;20037;-69
2023/06/08 05:45:25;;;;;;;17.35;8.13;;;;;;;;;;5025058;28;20091;-69
2023/06/08 05:47:51;;;;;;;22.60;7.20;;;;;;;;;;5023403;28;20490;-69
2023/06/08 05:50:16;;;;;;;20.08;8.02;;;;;;;;;;5019253;28;20132;-69
2023/06/08 05:52:41;;;;;;;18.80;7.60;;;;;;;;;;5014712;28;20025;-69
2023/06/08 05:55:07;;;;;;;18.52;7.72;;;;;;;;;;5015027;28;20030;-69
2023/06/08 05:57:32;;;;;;;15.70;7.65;;;;;;;;;;5010324;28;20112;-69
2023/06/08 05:59:58;;;;;;;18.50;7.65;;;;;;;;;;5021894;28;20585;-69
2023/06/08 06:02:23;;;;;;;21.85;8.20;;;;;;;;;;5022883;28;20116;-69
2023/06/08 06:04:48;;;;;;;18.75;7.57;;;;;;;;;;5015440;28;20033;-70
2023/06/08 06:07:14;;;;;;;21.27;8.07;;;;;;;;;;5019748;28;20072;-69
2023/06/08 06:09:39;;;;;;;15.50;7.55;;;;;;;;;;5020803;28;20037;-69
2023/06/08 06:12:07;;;;;;;15.43;7.50;;;;;;;;;;5008877;28;20072;-69
2023/06/08 06:14:37;;;;;;;20.38;8.60;;;;;;;;;;5008112;28;20041;-69
2023/06/08 06:17:03;;;;;;;20.83;8.35;;;;;;;;;;5007839;28;20073;-69
2023/06/08 06:19:33;;;;;;;22.08;8.25;;;;;;;;;;5002303;28;20116;-69
2023/06/08 06:21:58;;;;;;;22.00;9.13;;;;;;;;;;5013103;28;20049;-69
2023/06/08 06:24:23;;;;;;;21.42;8.80;;;;;;;;;;5021049;28;20036;-69
2023/06/08 06:26:49;;;;;;;16.90;7.68;;;;;;;;;;5022148;28;20120;-69
2023/06/08 06:29:14;;;;;;;21.98;8.55;;;;;;;;;;5022906;28;20034;-69
2023/06/08 06:31:39;;;;;;;21.15;8.40;;;;;;;;;;5013171;28;20068;-69
2023/06/08 06:34:05;;;;;;;25.17;8.75;;;;;;;;;;5006295;28;20029;-69
2023/06/08 06:36:30;;;;;;;23.75;9.43;;;;;;;;;;5021769;28;20128;-69
2023/06/08 06:38:55;;;;;;;19.67;8.32;;;;;;;;;;5020854;28;20481;-70
2023/06/08 06:41:21;;;;;;;20.20;9.10;;;;;;;;;;5022691;28;20038;-70
2023/06/08 06:43:46;;;;;;;18.77;8.93;;;;;;;;;;5023363;28;20037;-69
2023/06/08 06:46:12;;;;;;;23.55;9.40;;;;;;;;;;5027035;28;20021;-69
2023/06/08 06:48:37;;;;;;;16.27;8.27;;;;;;;;;;5020715;28;20044;-70
2023/06/08 06:51:03;;;;;;;29.60;10.48;;;;;;;;;;5028601;28;20041;-70
2023/06/08 06:53:28;;;;;;;19.02;8.32;;;;;;;;;;5022616;28;20049;-69
2023/06/08 06:55:53;;;;;;;20.85;8.93;;;;;;;;;;5035902;28;20030;-70
2023/06/08 06:58:20;;;;;;;21.58;9.70;;;;;;;;;;5030031;28;20137;-70
2023/06/08 07:00:45;;;;;;;26.25;8.85;;;;;;;;;;5015359;28;20095;-70
2023/06/08 07:03:11;;;;;;;22.27;8.90;;;;;;;;;;5008115;28;20079;-70
2023/06/08 07:05:37;;;;;;;26.52;9.13;;;;;;;;;;5013221;28;20734;-69
2023/06/08 07:08:03;;;;;;;19.55;9.40;;;;;;;;;;5018071;28;20052;-69
2023/06/08 07:10:29;;;;;;;21.80;9.38;;;;;;;;;;5019959;28;20395;-69
2023/06/08 07:12:56;;;;;;;20.63;8.73;;;;;;;;;;5014381;28;20121;-70
2023/06/08 07:15:21;;;;;;;18.92;9.75;;;;;;;;;;5015386;28;20853;-70
2023/06/08 07:17:47;;;;;;;21.77;9.50;;;;;;;;;;5015521;28;20044;-70
2023/06/08 07:20:13;;;;;;;19.75;9.10;;;;;;;;;;5013928;28;20736;-69
2023/06/08 07:22:38;;;;;;;21.92;10.02;;;;;;;;;;5011879;28;20080;-69
2023/06/08 07:25:05;;;;;;;24.92;9.45;;;;;;;;;;5018939;28;20518;-70
2023/06/08 07:27:30;;;;;;;23.42;10.00;;;;;;;;;;5020498;28;20061;-69
2023/06/08 07:29:56;;;;;;;21.40;9.73;;;;;;;;;;5023145;28;20118;-69
2023/06/08 07:32:21;;;;;;;23.05;9.48;;;;;;;;;;5025647;28;20572;-69
2023/06/08 07:34:47;;;;;;;21.38;10.15;;;;;;;;;;5024664;28;20499;-70
2023/06/08 07:37:13;;;;;;;20.88;10.18;;;;;;;;;;5023202;28;20062;-70
2023/06/08 07:39:38;;;;;;;22.23;10.27;;;;;;;;;;5021271;28;20631;-69
2023/06/08 07:42:05;;;;;;;20.90;9.75;;;;;;;;;;5022986;28;20072;-70
2023/06/08 07:44:30;;;;;;;26.90;10.18;;;;;;;;;;5023413;28;20087;-70
2023/06/08 07:46:56;;;;;;;23.58;10.45;;;;;;;;;;5024614;28;20025;-70
2023/06/08 07:49:21;;;;;;;20.25;9.43;;;;;;;;;;5024939;28;20025;-70
2023/06/08 07:51:46;;;;;;;22.85;10.82;;;;;;;;;;5025089;28;20044;-69
2023/06/08 07:54:13;;;;;;;21.63;10.00;;;;;;;;;;5023574;28;20631;-70
2023/06/08 07:56:39;;;;;;;22.13;10.45;;;;;;;;;;5016840;28;20041;-69
2023/06/08 07:59:04;;;;;;;27.52;10.70;;;;;;;;;;5010381;28;20049;-70
2023/06/08 08:01:30;;;;;;;19.13;9.93;;;;;;;;;;5015443;28;20422;-69
2023/06/08 08:03:56;;;;;;;25.10;11.55;;;;;;;;;;5033793;28;20059;-70
2023/06/08 08:06:21;;;;;;;18.92;10.00;;;;;;;;;;5026113;28;20117;-70
2023/06/08 08:08:46;;;;;;;23.17;10.35;;;;;;;;;;5017508;28;20034;-70
2023/06/08 08:11:12;;;;;;;22.58;10.52;;;;;;;;;;5016527;28;20030;-70
2023/06/08 08:13:37;;;;;;;22.27;10.90;;;;;;;;;;5021992;28;20025;-69
2023/06/08 08:16:03;;;;;;;19.92;9.82;;;;;;;;;;5028949;28;20100;-70
2023/06/08 08:18:28;;;;;;;23.05;11.18;;;;;;;;;;5035846;28;20038;-70
2023/06/08 08:20:53;;;;;;;20.63;10.73;;;;;;;;;;5032905;28;20092;-70
2023/06/08 08:23:19;;;;;;;21.55;11.13;;;;;;;;;;5019637;28;20037;-70
2023/06/08 08:25:44;;;;;;;24.30;10.85;;;;;;;;;;5023400;28;20036;-69
2023/06/08 08:28:10;;;;;;;21.48;10.88;;;;;;;;;;5023897;28;20108;-70
2023/06/08 08:30:35;;;;;;;22.35;10.30;;;;;;;;;;5022755;28;20041;-69
2023/06/08 08:33:01;;;;;;;23.42;10.65;;;;;;;;;;5023147;28;20124;-69
2023/06/08 08:35:29;;;;;;;24.00;10.63;;;;;;;;;;5014828;28;20407;-70
2023/06/08 08:37:55;;;;;;;25.10;10.85;;;;;;;;;;5008815;28;20364;-70
2023/06/08 08:40:21;;;;;;;22.33;10.50;;;;;;;;;;5003362;28;20026;-70
2023/06/08 08:42:54;;;;;;;22.42;10.93;;;;;;;;;;5008243;28;20091;-70
2023/06/08 08:45:23;;;;;;;24.10;11.32;;;;;;;;;;5006553;28;20427;-70
2023/06/08 08:47:53;;;;;;;25.67;10.93;;;;;;;;;;5012794;28;20041;-70
2023/06/08 08:50:19;;;;;;;24.45;11.73;;;;;;;;;;5022194;28;20046;-70
2023/06/08 08:52:53;;;;;;;29.17;12.93;;;;;;;;;;5014324;28;20029;-70
2023/06/08 08:55:27;;;;;;;26.33;11.80;;;;;;;;;;5022840;28;20095;-70
2023/06/08 08:57:56;;;;;;;20.88;10.45;;;;;;;;;;5022003;28;20029;-70
2023/06/08 09:00:21;;;;;;;25.60;12.38;;;;;;;;;;5018841;28;20683;-70
2023/06/08 09:02:49;;;;;;;22.27;10.95;;;;;;;;;;5019826;28;20049;-70
2023/06/08 09:05:15;;;;;;;25.42;12.20;;;;;;;;;;5019188;28;20039;-70
2023/06/08 09:07:40;;;;;;;25.38;12.00;;;;;;;;;;5022676;28;20018;-70
2023/06/08 09:10:19;;;;;;;24.77;11.25;;;;;;;;;;5023155;28;20017;-70
2023/06/08 09:12:46;;;;;;;22.92;11.52;;;;;;;;;;5023550;28;20037;-71
2023/06/08 09:15:17;;;;;;;27.70;12.40;;;;;;;;;;5014354;28;20053;-70
2023/06/08 09:17:44;;;;;;;26.63;12.40;;;;;;;;;;5013382;28;20042;-70
2023/06/08 09:20:10;;;;;;;23.73;12.02;;;;;;;;;;5014595;28;20061;-70
2023/06/08 09:22:36;;;;;;;21.20;11.93;;;;;;;;;;5014506;28;20025;-70
2023/06/08 09:25:03;;;;;;;28.83;13.27;;;;;;;;;;5017115;28;20040;-70
2023/06/08 09:27:30;;;;;;;22.60;12.02;;;;;;;;;;5010735;28;20049;-70
2023/06/08 09:29:57;;;;;;;25.40;13.05;;;;;;;;;;5016329;28;20125;-70
2023/06/08 09:32:30;;;;;;;26.50;13.00;;;;;;;;;;5017911;28;20073;-70
2023/06/08 09:35:01;;;;;;;26.92;12.23;;;;;;;;;;5025824;28;20513;-70
2023/06/08 09:37:29;;;;;;;23.05;11.98;;;;;;;;;;5020849;28;20018;-70
2023/06/08 09:39:55;;;;;;;23.27;13.13;;;;;;;;;;5012909;28;20033;-70
2023/06/08 09:42:21;;;;;;;26.73;14.07;;;;;;;;;;5023175;28;20037;-70
2023/06/08 09:44:46;;;;;;;27.38;12.85;;;;;;;;;;5038953;28;20099;-70
2023/06/08 09:47:23;;;;;;;22.88;13.18;;;;;;;;;;5030279;28;20109;-70
2023/06/08 09:49:53;;;;;;;23.38;13.07;;;;;;;;;;5025080;28;20107;-70
2023/06/08 09:52:20;;;;;;;21.67;12.60;;;;;;;;;;5014381;28;20747;-68
2023/06/08 09:54:46;;;;;;;25.42;12.90;;;;;;;;;;5020118;28;20676;-69
2023/06/08 09:57:15;;;;;;;28.80;12.65;;;;;;;;;;5022735;28;20065;-69
2023/06/08 09:59:52;;;;;;;24.95;12.80;;;;;;;;;;5023505;28;20044;-69
2023/06/08 10:02:29;;;;;;;24.77;13.00;;;;;;;;;;5021392;28;20104;-69
2023/06/08 10:04:57;;;;;;;19.65;11.15;;;;;;;;;;5023175;28;20024;-69
2023/06/08 10:07:29;;;;;;;25.10;13.88;;;;;;;;;;5021610;28;20039;-69
2023/06/08 10:10:05;;;;;;;21.23;12.93;;;;;;;;;;5013720;28;20191;-69
2023/06/08 10:12:31;;;;;;;26.00;12.77;;;;;;;;;;5020458;28;20044;-69
2023/06/08 10:14:57;;;;;;;23.25;12.02;;;;;;;;;;5011789;28;20033;-68
2023/06/08 10:17:25;;;;;;;22.17;12.35;;;;;;;;;;5012976;28;20041;-70
2023/06/08 10:19:51;;;;;;;27.80;12.73;;;;;;;;;;5017712;28;20021;-71
2023/06/08 10:22:18;;;;;;;26.50;14.35;;;;;;;;;;5016912;28;20026;-71
2023/06/08 10:24:46;;;;;;;25.75;13.23;;;;;;;;;;5026260;28;20033;-71
2023/06/08 10:27:26;;;;;;;19.13;11.40;;;;;;;;;;5024713;28;20769;-71
2023/06/08 10:30:03;;;;;;;20.55;12.63;;;;;;;;;;5026765;28;20158;-71
2023/06/08 10:32:31;;;;;;;25.02;12.23;;;;;;;;;;5025840;28;20541;-71
2023/06/08 10:34:58;;;;;;;24.67;13.77;;;;;;;;;;5025582;28;20032;-71
2023/06/08 10:37:27;;;;;;;21.85;12.23;;;;;;;;;;5025165;28;20017;-70
2023/06/08 10:39:52;;;;;;;20.08;11.50;;;;;;;;;;5026762;28;20033;-70
2023/06/08 10:42:18;;;;;;;21.15;12.05;;;;;;;;;;5025920;28;20099;-70
2023/06/08 10:44:52;;;;;;;20.55;12.15;;;;;;;;;;5025724;28;20053;-70
2023/06/08 10:47:18;;;;;;;25.20;13.10;;;;;;;;;;5026749;28;20431;-70
2023/06/08 10:49:55;;;;;;;24.52;14.00;;;;;;;;;;5022385;28;20120;-70
2023/06/08 10:52:22;;;;;;;21.45;12.93;;;;;;;;;;5028602;28;20034;-70
2023/06/08 10:55:09;;;;;;;26.38;14.02;;;;;;;;;;5026498;28;20030;-70
2023/06/08 10:57:38;;;;;;;21.55;13.02;;;;;;;;;;5025339;28;20815;-70
2023/06/08 11:00:26;;;;;;;21.38;13.40;;;;;;;;;;5026406;28;20034;-70
2023/06/08 11:02:52;;;;;;;18.80;12.93;;;;;;;;;;5027043;28;20541;-70
2023/06/08 11:05:19;;;;;;;31.25;13.13;;;;;;;;;;5027682;28;20025;-71
2023/06/08 11:07:44;;;;;;;24.98;12.93;;;;;;;;;;5033070;28;20025;-70
2023/06/08 11:10:10;;;;;;;21.83;13.60;;;;;;;;;;5039829;28;20025;-70
2023/06/08 11:12:35;;;;;;;19.58;13.30;;;;;;;;;;5025869;28;20510;-71
2023/06/08 11:15:01;;;;;;;19.90;11.85;;;;;;;;;;5025680;28;20471;-70
2023/06/08 11:17:26;;;;;;;27.40;13.70;;;;;;;;;;5026579;28;20033;-70
2023/06/08 11:19:52;;;;;;;16.75;11.75;;;;;;;;;;5025132;28;20021;-70
2023/06/08 11:22:17;;;;;;;22.88;13.45;;;;;;;;;;5026648;28;20025;-70
2023/06/08 11:24:43;;;;;;;20.52;13.57;;;;;;;;;;5025756;28;20061;-70
2023/06/08 11:27:16;;;;;;;19.40;12.50;;;;;;;;;;5024522;28;20104;-70
2023/06/08 11:29:42;;;;;;;20.30;12.50;;;;;;;;;;5023049;28;20033;-70
2023/06/08 11:32:12;;;;;;;21.70;12.93;;;;;;;;;;5024216;28;20041;-70
2023/06/08 11:34:38;;;;;;;23.33;13.07;;;;;;;;;;5024851;28;20021;-70
2023/06/08 11:37:04;;;;;;;21.52;12.18;;;;;;;;;;5025325;28;20041;-70
2023/06/08 11:39:33;;;;;;;25.67;13.63;;;;;;;;;;5024550;28;20738;-71
2023/06/08 11:41:59;;;;;;;20.98;13.73;;;;;;;;;;5023536;28;20239;-70
2023/06/08 11:44:28;;;;;;;21.80;12.45;;;;;;;;;;5025823;28;20030;-70
2023/06/08 11:46:53;;;;;;;21.58;12.82;;;;;;;;;;5025308;28;20068;-70
2023/06/08 11:49:18;;;;;;;21.33;12.65;;;;;;;;;;5025404;28;20056;-71
2023/06/08 11:51:49;;;;;;;21.90;12.40;;;;;;;;;;5025223;28;20124;-70
2023/06/08 11:54:15;;;;;;;17.90;11.35;;;;;;;;;;5024844;28;20423;-70
2023/06/08 11:56:42;;;;;;;21.42;12.18;;;;;;;;;;5023926;28;20039;-70
2023/06/08 11:59:08;;;;;;;18.88;11.93;;;;;;;;;;5025502;28;20511;-70
2023/06/08 12:01:34;;;;;;;21.77;12.20;;;;;;;;;;5023481;28;20025;-70
2023/06/08 12:04:00;;;;;;;19.88;11.25;;;;;;;;;;5019101;28;20136;-71
2023/06/08 12:06:26;;;;;;;21.25;12.02;;;;;;;;;;5024852;28;20113;-70
2023/06/08 12:08:55;;;;;;;19.20;12.95;;;;;;;;;;5024932;28;20045;-71
2023/06/08 12:11:21;;;;;;;20.42;11.48;;;;;;;;;;5024586;28;20116;-70
2023/06/08 12:13:47;;;;;;;20.45;11.48;;;;;;;;;;5025186;28;20022;-70
2023/06/08 12:16:13;;;;;;;24.60;12.38;;;;;;;;;;5012333;28;20442;-70
2023/06/08 12:18:40;;;;;;;17.52;10.68;;;;;;;;;;5023577;28;20033;-71
2023/06/08 12:21:07;;;;;;;15.82;11.15;;;;;;;;;;5024887;28;20063;-71
2023/06/08 12:23:32;;;;;;;19.00;11.85;;;;;;;;;;5025014;28;20134;-71
2023/06/08 12:25:58;;;;;;;18.98;10.98;;;;;;;;;;5025535;28;20084;-70
2023/06/08 12:28:24;;;;;;;15.38;10.73;;;;;;;;;;5025843;28;20465;-70
2023/06/08 12:30:50;;;;;;;16.80;10.80;;;;;;;;;;5027076;28;20037;-71
2023/06/08 12:33:20;;;;;;;18.30;9.93;;;;;;;;;;5031531;28;20037;-71
2023/06/08 12:35:49;;;;;;;19.40;9.73;;;;;;;;;;5035696;28;20466;-71
2023/06/08 12:38:14;;;;;;;17.38;10.02;;;;;;;;;;5026346;28;20639;-71
2023/06/08 12:40:43;;;;;;;13.60;9.27;;;;;;;;;;5025059;28;20057;-71
2023/06/08 12:43:09;;;;;;;12.88;8.68;;;;;;;;;;5023957;28;20076;-71
2023/06/08 12:45:35;;;;;;;12.18;8.32;;;;;;;;;;5024808;28;20936;-71
2023/06/08 12:48:00;;;;;;;13.60;8.45;;;;;;;;;;5023522;28;20037;-71
2023/06/08 12:50:29;;;;;;;15.27;8.38;;;;;;;;;;5024461;28;20037;-71
2023/06/08 12:52:54;;;;;;;15.68;7.80;;;;;;;;;;5024495;28;20040;-71
2023/06/08 12:55:19;;;;;;;14.25;8.52;;;;;;;;;;5023200;28;20014;-71
2023/06/08 12:57:45;;;;;;;14.70;8.60;;;;;;;;;;5024497;28;20534;-71
2023/06/08 13:00:14;;;;;;;13.35;8.77;;;;;;;;;;5022163;28;20033;-71
2023/06/08 13:02:40;;;;;;;11.38;8.57;;;;;;;;;;5023665;28;20048;-71
2023/06/08 13:05:05;;;;;;;14.30;8.80;;;;;;;;;;5024343;28;20034;-71
2023/06/08 13:07:31;;;;;;;17.58;7.80;;;;;;;;;;5024677;28;20017;-71
2023/06/08 13:09:58;;;;;;;12.10;7.60;;;;;;;;;;5022703;28;20041;-71
2023/06/08 13:12:25;;;;;;;14.00;7.93;;;;;;;;;;5022691;28;20039;-71
2023/06/08 13:14:51;;;;;;;9.90;7.57;;;;;;;;;;5023794;28;20033;-71
2023/06/08 13:17:17;;;;;;;13.60;7.82;;;;;;;;;;5024051;28;20061;-71
2023/06/08 13:19:45;;;;;;;11.13;7.82;;;;;;;;;;5024534;28;20057;-71
2023/06/08 13:22:12;;;;;;;10.20;7.03;;;;;;;;;;5023233;28;20412;-71
2023/06/08 13:24:38;;;;;;;12.32;6.80;;;;;;;;;;5023757;28;20574;-71
2023/06/08 13:27:04;;;;;;;14.52;7.15;;;;;;;;;;5023780;28;20511;-71
2023/06/08 13:29:29;;;;;;;9.93;6.30;;;;;;;;;;5023275;28;20033;-71
2023/06/08 13:31:55;;;;;;;7.55;6.13;;;;;;;;;;5023625;28;20032;-71
2023/06/08 13:34:20;;;;;;;12.60;6.85;;;;;;;;;;5023745;28;20025;-71
2023/06/08 13:36:46;;;;;;;10.30;6.57;;;;;;;;;;5023179;28;20038;-71
2023/06/08 13:39:11;;;;;;;17.05;6.50;;;;;;;;;;5024217;28;20141;-71
2023/06/08 13:41:37;;;;;;;8.95;6.60;;;;;;;;;;5023665;28;20079;-71
2023/06/08 13:44:03;;;;;;;6.68;5.90;;;;;;;;;;5023682;28;20546;-71
2023/06/08 13:46:29;;;;;;;9.68;6.60;;;;;;;;;;5024648;28;20053;-71
2023/06/08 13:48:54;;;;;;;10.88;6.72;;;;;;;;;;5021072;28;20029;-71
2023/06/08 13:51:20;;;;;;;7.85;6.60;;;;;;;;;;5024153;28;20037;-70
2023/06/08 13:53:46;;;;;;;9.13;7.18;;;;;;;;;;5028406;28;20088;-70
2023/06/08 13:56:11;;;;;;;8.32;6.88;;;;;;;;;;5018523;28;20026;-70
2023/06/08 13:58:37;;;;;;;8.88;6.68;;;;;;;;;;5022351;28;20032;-70
2023/06/08 14:01:02;;;;;;;9.65;7.50;;;;;;;;;;5025094;28;20548;-69
2023/06/08 14:03:27;;;;;;;10.00;6.03;;;;;;;;;;5010282;28;20760;-71
2023/06/08 14:05:53;;;;;;;12.00;7.00;;;;;;;;;;5016902;28;20037;-71
2023/06/08 14:08:18;;;;;;;8.38;6.78;;;;;;;;;;5027702;28;20057;-70
2023/06/08 14:10:44;;;;;;;10.07;7.05;;;;;;;;;;5024494;28;20025;-71
2023/06/08 14:13:09;;;;;;;8.25;6.45;;;;;;;;;;5013663;28;20026;-71
2023/06/08 14:15:35;;;;;;;8.90;6.68;;;;;;;;;;5030957;28;20048;-71
2023/06/08 14:18:00;;;;;;;10.75;6.68;;;;;;;;;;5027022;28;20057;-71
2023/06/08 14:20:28;;;;;;;14.35;7.75;;;;;;;;;;5024703;28;20086;-71
2023/06/08 14:22:54;;;;;;;10.27;7.10;;;;;;;;;;5025910;28;20032;-71
2023/06/08 14:25:19;;;;;;;9.13;7.20;;;;;;;;;;5009473;28;20025;-71